Mariana — HP5173 — position and weather

sailwx.info

Track history (hours):
 
Tides and Currents Weather Stations Pressure Air Temp Water Temp Dewpoint Dewpoint Depression Visibility Wind Speed Wind Dir Waves Ship Positions

Mariana

Last reported at 2018-Apr-28 09:07 UTC. Time now 2018-May-25 22:41 UTC.
Position N 35°58' W 005°33'.
Warning: this ship's position is 27 days out of date.

Length 180 m; draft 11 m.

Type: Cargo ship. MMSI: 373923000.

Date/timePositionNaut miles runAvg speedWind from/ knotsBaromVisibWave heightAir tempDewpointWater temp
2018-Apr-28 09:07N 35°58' W 005°33'110.4
2018-Apr-28 09:00N 35°59' W 005°32'5 9.7
2018-Apr-28 08:30N 35°60' W 005°26'4 9.0
2018-Apr-28 08:00N 36°01' W 005°21'5 9.0
2018-Apr-28 07:30N 36°02' W 005°16'712.7
2018-Apr-28 06:59N 36°05' W 005°08'912.0
2018-Apr-28 06:15N 36°08' W 004°58'  
2018-Apr-25 20:53N 38°00' E 009°05'511.5
2018-Apr-25 20:27N 37°59' E 009°11'1411.7
2018-Apr-25 19:15N 37°55' E 009°28'312.1
2018-Apr-25 18:58N 37°55' E 009°32'15711.1
2018-Apr-25 04:50N 36°54' E 012°35'412.3
2018-Apr-25 04:30N 36°52' E 012°39'612.4
2018-Apr-25 04:00N 36°49' E 012°46'612.5
2018-Apr-25 03:30N 36°46' E 012°53'612.5
2018-Apr-25 03:00N 36°44' E 013°01'612.4
2018-Apr-25 02:30N 36°42' E 013°08'612.3
2018-Apr-25 02:00N 36°40' E 013°15'612.1
2018-Apr-25 01:30N 36°38' E 013°22'612.3
2018-Apr-25 01:00N 36°37' E 013°30'612.1
2018-Apr-25 00:30N 36°35' E 013°37'612.5
2018-Apr-25 00:00N 36°33' E 013°45'612.5
2018-Apr-24 23:30N 36°32' E 013°52'612.5
2018-Apr-24 23:00N 36°30' E 013°60'612.6
2018-Apr-24 22:30N 36°28' E 014°07'612.6
2018-Apr-24 22:01N 36°26' E 014°15'612.5
2018-Apr-24 21:30N 36°25' E 014°22'612.4
2018-Apr-24 21:00N 36°23' E 014°30'612.4
2018-Apr-24 20:30N 36°21' E 014°37'612.1
2018-Apr-24 20:00N 36°20' E 014°44'612.0
2018-Apr-24 19:31N 36°18' E 014°51'612.0
2018-Apr-24 19:01N 36°16' E 014°58'612.0
2018-Apr-24 18:30N 36°15' E 015°06'612.0
2018-Apr-24 18:00N 36°13' E 015°13'612.3
2018-Apr-24 17:29N 36°13' E 015°21'  
2018-Apr-21 23:37N 39°49' E 025°44'212.7
2018-Apr-21 23:29N 39°50' E 025°45'  
Track history (hours):
 
Tides and Currents Weather Stations Pressure Air Temp Water Temp Dewpoint Dewpoint Depression Visibility Wind Speed Wind Dir Waves Ship Positions

Mariana

Last reported at 2018-Apr-28 09:07 UTC. Time now 2018-May-25 22:41 UTC.
Position N 35°58' W 005°33'.
Warning: this ship's position is 27 days out of date.

Length 180 m; draft 11 m.

Type: Cargo ship. MMSI: 373923000.

Date/timePositionNaut miles runAvg speedWind from/ knotsBaromVisibWave heightAir tempDewpointWater temp
2018-Apr-28 09:07N 35°58' W 005°33'110.4
2018-Apr-28 09:00N 35°59' W 005°32'5 9.7
2018-Apr-28 08:30N 35°60' W 005°26'4 9.0
2018-Apr-28 08:00N 36°01' W 005°21'5 9.0
2018-Apr-28 07:30N 36°02' W 005°16'712.7
2018-Apr-28 06:59N 36°05' W 005°08'912.0
2018-Apr-28 06:15N 36°08' W 004°58'  
2018-Apr-25 20:53N 38°00' E 009°05'511.5
2018-Apr-25 20:27N 37°59' E 009°11'1411.7
2018-Apr-25 19:15N 37°55' E 009°28'312.1
2018-Apr-25 18:58N 37°55' E 009°32'15711.1
2018-Apr-25 04:50N 36°54' E 012°35'412.3
2018-Apr-25 04:30N 36°52' E 012°39'612.4
2018-Apr-25 04:00N 36°49' E 012°46'612.5
2018-Apr-25 03:30N 36°46' E 012°53'612.5
2018-Apr-25 03:00N 36°44' E 013°01'612.4
2018-Apr-25 02:30N 36°42' E 013°08'612.3
2018-Apr-25 02:00N 36°40' E 013°15'612.1
2018-Apr-25 01:30N 36°38' E 013°22'612.3
2018-Apr-25 01:00N 36°37' E 013°30'612.1
2018-Apr-25 00:30N 36°35' E 013°37'612.5
2018-Apr-25 00:00N 36°33' E 013°45'612.5
2018-Apr-24 23:30N 36°32' E 013°52'612.5
2018-Apr-24 23:00N 36°30' E 013°60'612.6
2018-Apr-24 22:30N 36°28' E 014°07'612.6
2018-Apr-24 22:01N 36°26' E 014°15'612.5
2018-Apr-24 21:30N 36°25' E 014°22'612.4
2018-Apr-24 21:00N 36°23' E 014°30'612.4
2018-Apr-24 20:30N 36°21' E 014°37'612.1
2018-Apr-24 20:00N 36°20' E 014°44'612.0
2018-Apr-24 19:31N 36°18' E 014°51'612.0
2018-Apr-24 19:01N 36°16' E 014°58'612.0
2018-Apr-24 18:30N 36°15' E 015°06'612.0
2018-Apr-24 18:00N 36°13' E 015°13'612.3
2018-Apr-24 17:29N 36°13' E 015°21'  
2018-Apr-21 23:37N 39°49' E 025°44'212.7
2018-Apr-21 23:29N 39°50' E 025°45'  

Dump ship's entire track history